createdAt,value
2017-09-17T00:01:25.298Z,14.83
2017-09-17T00:03:53.710Z,12.67
2017-09-17T00:06:24.172Z,11.87
2017-09-17T00:08:52.590Z,14.97
2017-09-17T00:11:20.926Z,15.07
2017-09-17T00:13:49.748Z,12.67
2017-09-17T00:16:18.093Z,13.13
2017-09-17T00:18:47.062Z,14.80
2017-09-17T00:21:17.309Z,22.53
2017-09-17T00:23:45.661Z,26.93
2017-09-17T00:26:14.854Z,16.00
2017-09-17T00:28:43.502Z,17.00
2017-09-17T00:31:11.878Z,15.77
2017-09-17T00:33:40.275Z,27.00
2017-09-17T00:36:09.018Z,17.30
2017-09-17T00:38:37.364Z,17.23
2017-09-17T00:41:07.790Z,17.47
2017-09-17T00:43:36.605Z,17.23
2017-09-17T00:46:05.000Z,16.30
2017-09-17T00:48:33.374Z,13.93
2017-09-17T00:51:03.723Z,13.43
2017-09-17T00:53:32.234Z,17.67
2017-09-17T00:56:01.542Z,14.10
2017-09-17T00:58:31.045Z,17.10
2017-09-17T01:00:59.594Z,17.93
2017-09-17T01:03:28.196Z,14.47
2017-09-17T01:05:56.817Z,18.87
2017-09-17T01:08:26.753Z,14.20
2017-09-17T01:10:55.741Z,18.43
2017-09-17T01:13:24.668Z,16.07
2017-09-17T01:15:53.030Z,14.83
2017-09-17T01:18:21.400Z,13.20
2017-09-17T01:20:50.105Z,17.97
2017-09-17T01:23:18.485Z,15.33
2017-09-17T01:25:47.837Z,15.77
2017-09-17T01:28:17.583Z,16.53
2017-09-17T01:30:46.223Z,15.03
2017-09-17T01:33:14.591Z,15.77
2017-09-17T01:35:44.062Z,13.40
2017-09-17T01:38:12.422Z,16.57
2017-09-17T01:40:43.139Z,16.63
2017-09-17T01:43:13.911Z,21.17
2017-09-17T01:45:42.259Z,13.40
2017-09-17T01:48:11.423Z,17.20
2017-09-17T01:50:40.493Z,13.97
2017-09-17T01:53:11.273Z,17.93
2017-09-17T01:55:39.631Z,16.20
2017-09-17T01:58:08.281Z,20.27
2017-09-17T02:00:37.170Z,14.63
2017-09-17T02:03:06.438Z,19.10
2017-09-17T02:05:36.404Z,16.77
2017-09-17T02:08:04.758Z,14.50
2017-09-17T02:10:34.786Z,15.30
2017-09-17T02:13:05.366Z,17.13
2017-09-17T02:15:34.405Z,13.63
2017-09-17T02:18:03.501Z,14.73
2017-09-17T02:20:32.249Z,19.87
2017-09-17T02:23:00.862Z,13.60
2017-09-17T02:25:30.091Z,16.90
2017-09-17T02:27:58.957Z,21.73
2017-09-17T02:30:27.337Z,13.77
2017-09-17T02:32:56.463Z,19.33
2017-09-17T02:35:26.039Z,14.90
2017-09-17T02:37:55.613Z,21.30
2017-09-17T02:40:24.191Z,16.10
2017-09-17T02:42:53.000Z,19.80
2017-09-17T02:45:22.689Z,19.03
2017-09-17T02:47:51.044Z,17.97
2017-09-17T02:50:21.925Z,21.33
2017-09-17T02:52:51.070Z,17.83
2017-09-17T02:55:19.441Z,19.57
2017-09-17T02:57:48.329Z,16.17
2017-09-17T03:00:18.100Z,16.60
2017-09-17T03:02:47.214Z,17.67
2017-09-17T03:05:16.645Z,17.37
2017-09-17T03:07:45.038Z,21.30
2017-09-17T03:10:13.419Z,18.30
2017-09-17T03:12:42.192Z,19.60
2017-09-17T03:15:10.634Z,24.57
2017-09-17T03:17:39.762Z,18.53
2017-09-17T03:20:09.503Z,18.57
2017-09-17T03:22:37.874Z,27.03
2017-09-17T03:25:06.255Z,19.27
2017-09-17T03:27:35.012Z,25.40
2017-09-17T03:30:03.419Z,20.53
2017-09-17T03:32:32.614Z,15.60
2017-09-17T03:35:01.510Z,15.53
2017-09-17T03:37:29.904Z,25.63
2017-09-17T03:39:58.887Z,20.10
2017-09-17T03:42:27.854Z,15.13
2017-09-17T03:44:56.398Z,17.03
2017-09-17T03:47:24.772Z,16.87
2017-09-17T03:49:53.623Z,13.63
2017-09-17T03:52:21.982Z,16.57
2017-09-17T03:54:51.457Z,13.87
2017-09-17T03:57:21.094Z,14.13
2017-09-17T03:59:49.436Z,14.40
2017-09-17T04:02:18.653Z,19.37
2017-09-17T04:04:48.061Z,16.83
2017-09-17T04:07:17.167Z,17.50
2017-09-17T04:09:46.272Z,13.37
2017-09-17T04:12:15.010Z,15.13
2017-09-17T04:14:43.405Z,17.70
2017-09-17T04:17:13.930Z,14.90
2017-09-17T04:19:43.771Z,17.53
2017-09-17T04:22:13.390Z,13.33
2017-09-17T04:24:41.747Z,21.13
2017-09-17T04:27:11.271Z,20.63
2017-09-17T04:29:40.316Z,16.70
2017-09-17T04:32:10.578Z,17.93
2017-09-17T04:34:40.867Z,15.30
2017-09-17T04:37:09.270Z,14.63
2017-09-17T04:39:39.061Z,18.83
2017-09-17T04:42:07.824Z,15.23
2017-09-17T04:44:36.188Z,16.97
2017-09-17T04:47:05.153Z,15.10
2017-09-17T04:49:33.798Z,15.97
2017-09-17T04:52:02.997Z,18.87
2017-09-17T04:54:31.343Z,19.80
2017-09-17T04:56:59.969Z,15.23
2017-09-17T04:59:28.343Z,21.60
2017-09-17T05:01:57.121Z,20.03
2017-09-17T05:04:27.304Z,14.43
2017-09-17T05:06:56.555Z,14.87
2017-09-17T05:09:24.890Z,15.43
2017-09-17T05:11:54.120Z,21.20
2017-09-17T05:14:22.497Z,14.80
2017-09-17T05:16:50.974Z,19.70
2017-09-17T05:19:20.219Z,18.10
2017-09-17T05:21:48.579Z,16.67
2017-09-17T05:24:16.935Z,14.67
2017-09-17T05:26:46.497Z,15.93
2017-09-17T05:29:15.406Z,14.93
2017-09-17T05:31:43.768Z,14.67
2017-09-17T05:34:12.834Z,18.47
2017-09-17T05:36:41.557Z,14.80
2017-09-17T05:39:10.330Z,20.87
2017-09-17T05:41:39.755Z,16.57
2017-09-17T05:44:08.517Z,12.73
2017-09-17T05:46:37.864Z,13.63
2017-09-17T05:49:06.634Z,14.70
2017-09-17T05:51:37.403Z,13.00
2017-09-17T05:54:05.949Z,17.60
2017-09-17T05:56:34.669Z,12.20
2017-09-17T05:59:04.189Z,12.90
2017-09-17T06:01:33.510Z,12.60
2017-09-17T06:04:02.334Z,12.10
2017-09-17T06:06:30.934Z,11.67
2017-09-17T06:09:00.906Z,12.27
2017-09-17T06:11:31.464Z,12.37
2017-09-17T06:14:00.430Z,11.70
2017-09-17T06:16:28.779Z,13.87
2017-09-17T06:18:57.405Z,17.63
2017-09-17T06:21:26.125Z,12.70
2017-09-17T06:23:54.473Z,17.03
2017-09-17T06:26:23.398Z,16.30
2017-09-17T06:28:52.426Z,10.30
2017-09-17T06:31:22.295Z,9.40
2017-09-17T06:33:52.063Z,9.80
2017-09-17T06:36:20.423Z,9.23
2017-09-17T06:38:49.468Z,8.30
2017-09-17T06:41:19.040Z,9.07
2017-09-17T06:43:47.441Z,8.80
2017-09-17T06:46:16.343Z,12.70
2017-09-17T06:48:45.357Z,9.70
2017-09-17T06:51:13.840Z,14.07
2017-09-17T06:53:42.215Z,15.83
2017-09-17T06:56:11.340Z,9.23
2017-09-17T06:58:40.920Z,9.10
2017-09-17T07:01:09.297Z,8.87
2017-09-17T07:03:38.868Z,9.97
2017-09-17T07:06:08.029Z,7.33
2017-09-17T07:08:38.727Z,7.37
2017-09-17T07:11:08.370Z,7.43
2017-09-17T07:13:36.716Z,13.83
2017-09-17T07:16:06.098Z,7.43
2017-09-17T07:18:35.251Z,10.87
2017-09-17T07:21:04.346Z,6.40
2017-09-17T07:23:32.940Z,8.80
2017-09-17T07:26:01.688Z,8.27
2017-09-17T07:28:30.334Z,11.23
2017-09-17T07:30:59.521Z,8.70
2017-09-17T07:33:28.185Z,17.90
2017-09-17T07:35:57.336Z,11.00
2017-09-17T07:38:26.541Z,64.83
2017-09-17T07:40:57.379Z,8.73
2017-09-17T07:43:26.571Z,8.97
2017-09-17T07:45:55.700Z,8.33
2017-09-17T07:48:26.561Z,8.47
2017-09-17T07:50:54.987Z,12.53
2017-09-17T07:53:24.123Z,8.77
2017-09-17T07:55:52.888Z,18.13
2017-09-17T07:58:21.292Z,8.40
2017-09-17T08:00:51.116Z,9.40
2017-09-17T08:03:19.951Z,8.27
2017-09-17T08:05:48.979Z,8.07
2017-09-17T08:08:18.303Z,7.80
2017-09-17T08:10:46.930Z,12.67
2017-09-17T08:13:17.359Z,8.50
2017-09-17T08:15:46.596Z,7.23
2017-09-17T08:18:15.361Z,9.73
2017-09-17T08:20:43.720Z,14.63
2017-09-17T08:23:12.082Z,7.43
2017-09-17T08:25:41.288Z,9.83
2017-09-17T08:28:10.439Z,8.07
2017-09-17T08:30:38.841Z,8.13
2017-09-17T08:33:07.635Z,7.43
2017-09-17T08:35:35.983Z,8.80
2017-09-17T08:38:04.359Z,15.63
2017-09-17T08:40:32.979Z,7.57
2017-09-17T08:43:01.843Z,8.53
2017-09-17T08:45:31.406Z,7.67
2017-09-17T08:48:01.911Z,6.93
2017-09-17T08:50:31.163Z,7.40
2017-09-17T08:52:59.581Z,10.87
2017-09-17T08:55:28.367Z,6.30
2017-09-17T08:57:56.755Z,6.10
2017-09-17T09:00:25.140Z,7.47
2017-09-17T09:02:55.518Z,9.13
2017-09-17T09:05:23.933Z,6.60
2017-09-17T09:07:52.312Z,7.70
2017-09-17T09:10:21.957Z,5.10
2017-09-17T09:12:51.110Z,6.73
2017-09-17T09:15:20.179Z,6.10
2017-09-17T09:17:49.212Z,6.77
2017-09-17T09:20:17.874Z,5.83
2017-09-17T09:22:46.677Z,6.77
2017-09-17T09:25:15.336Z,5.83
2017-09-17T09:27:44.696Z,5.60
2017-09-17T09:30:13.781Z,4.80
2017-09-17T09:32:42.942Z,6.67
2017-09-17T09:35:11.392Z,4.80
2017-09-17T09:37:41.120Z,5.30
2017-09-17T09:40:11.092Z,3.57
2017-09-17T09:42:39.462Z,4.60
2017-09-17T09:45:08.800Z,3.90
2017-09-17T09:47:37.961Z,3.77
2017-09-17T09:50:06.723Z,3.30
2017-09-17T09:52:35.103Z,3.40
2017-09-17T09:55:03.817Z,4.80
2017-09-17T09:57:32.435Z,3.43
2017-09-17T10:00:00.856Z,7.70
2017-09-17T10:02:29.806Z,4.90
2017-09-17T10:04:58.942Z,4.50
2017-09-17T10:07:27.301Z,2.40
2017-09-17T10:09:56.919Z,2.60
2017-09-17T10:12:25.265Z,2.20
2017-09-17T10:14:53.700Z,2.50
2017-09-17T10:17:22.642Z,2.50
2017-09-17T10:19:52.520Z,3.17
2017-09-17T10:22:21.925Z,2.07
2017-09-17T10:24:50.564Z,2.53
2017-09-17T10:27:18.943Z,2.27
2017-09-17T10:29:47.782Z,2.33
2017-09-17T10:32:16.399Z,2.27
2017-09-17T10:34:46.479Z,2.23
2017-09-17T10:37:14.939Z,4.80
2017-09-17T10:39:44.697Z,2.60
2017-09-17T10:42:13.817Z,2.20
2017-09-17T10:44:42.939Z,2.20
2017-09-17T10:47:12.700Z,1.50
2017-09-17T10:49:41.645Z,1.90
2017-09-17T10:52:10.089Z,1.70
2017-09-17T10:54:40.353Z,1.70
2017-09-17T10:57:09.247Z,7.70
2017-09-17T10:59:38.236Z,2.20
2017-09-17T11:02:07.756Z,2.43
2017-09-17T11:04:36.154Z,2.40
2017-09-17T11:07:05.033Z,7.93
2017-09-17T11:09:33.724Z,2.30
2017-09-17T11:12:02.614Z,5.90
2017-09-17T11:14:31.779Z,2.60
2017-09-17T11:17:00.498Z,13.23
2017-09-17T11:19:28.848Z,7.10
2017-09-17T11:21:57.603Z,2.27
2017-09-17T11:24:27.583Z,2.50
2017-09-17T11:26:56.224Z,2.17
2017-09-17T11:29:25.353Z,3.43
2017-09-17T11:31:55.161Z,3.60
2017-09-17T11:34:23.502Z,2.50
2017-09-17T11:36:53.486Z,2.80
2017-09-17T11:39:23.163Z,4.73
2017-09-17T11:41:51.518Z,3.37
2017-09-17T11:44:19.879Z,2.00
2017-09-17T11:46:49.857Z,2.23
2017-09-17T11:49:18.225Z,2.03
2017-09-17T11:51:47.528Z,1.73
2017-09-17T11:54:16.241Z,1.50
2017-09-17T11:56:44.925Z,1.53
2017-09-17T11:59:13.292Z,4.10
2017-09-17T12:01:42.149Z,2.77
2017-09-17T12:04:10.514Z,5.20
2017-09-17T12:06:39.638Z,5.00
2017-09-17T12:09:08.702Z,2.20
2017-09-17T12:11:37.099Z,2.60
2017-09-17T12:14:05.477Z,1.50
2017-09-17T12:16:34.163Z,1.87
2017-09-17T12:19:03.313Z,1.27
2017-09-17T12:21:31.691Z,1.40
2017-09-17T12:24:01.175Z,1.50
2017-09-17T12:26:29.535Z,1.90
2017-09-17T12:29:00.379Z,5.80
2017-09-17T12:31:29.327Z,3.47
2017-09-17T12:33:59.700Z,1.50
2017-09-17T12:36:28.051Z,2.70
2017-09-17T12:38:56.721Z,1.80
2017-09-17T12:41:25.884Z,1.67
2017-09-17T12:43:54.704Z,2.97
2017-09-17T12:46:24.116Z,2.07
2017-09-17T12:48:54.033Z,1.60
2017-09-17T12:51:23.467Z,2.00
2017-09-17T12:53:52.254Z,2.23
2017-09-17T12:56:21.579Z,2.10
2017-09-17T12:58:50.782Z,3.67
2017-09-17T13:01:19.741Z,2.20
2017-09-17T13:03:48.972Z,1.50
2017-09-17T13:06:19.520Z,2.43
2017-09-17T13:08:48.559Z,1.60
2017-09-17T13:11:16.939Z,1.80
2017-09-17T13:13:46.841Z,2.60
2017-09-17T13:16:15.917Z,1.70
2017-09-17T13:18:45.047Z,1.77
2017-09-17T13:21:13.499Z,1.73
2017-09-17T13:23:43.748Z,4.00
2017-09-17T13:26:13.187Z,2.60
2017-09-17T13:28:41.636Z,1.90
2017-09-17T13:31:10.433Z,2.00
2017-09-17T13:33:40.088Z,10.40
2017-09-17T13:36:08.454Z,3.23
2017-09-17T13:38:37.698Z,1.60
2017-09-17T13:41:06.916Z,1.20
2017-09-17T13:43:35.299Z,1.57
2017-09-17T13:46:04.220Z,1.50
2017-09-17T13:48:32.681Z,1.97
2017-09-17T13:51:01.591Z,1.50
2017-09-17T13:53:30.311Z,1.70
2017-09-17T13:55:59.760Z,2.67
2017-09-17T13:58:29.179Z,1.40
2017-09-17T14:04:17.662Z,1.67
2017-09-17T14:06:49.856Z,0.90
2017-09-17T14:09:19.149Z,1.60
2017-09-17T14:11:48.298Z,1.20
2017-09-17T14:14:16.940Z,1.33
2017-09-17T14:16:47.917Z,1.70
2017-09-17T14:19:17.078Z,1.57
2017-09-17T14:21:46.112Z,1.60
2017-09-17T14:24:16.032Z,3.67
2017-09-17T14:26:45.290Z,2.00
2017-09-17T14:29:14.696Z,3.60
2017-09-17T14:31:43.882Z,1.70
2017-09-17T14:34:12.255Z,2.50
2017-09-17T14:36:41.051Z,2.07
2017-09-17T14:39:09.475Z,1.63
2017-09-17T14:41:39.072Z,3.47
2017-09-17T14:44:08.877Z,8.83
2017-09-17T14:46:38.256Z,2.10
2017-09-17T14:49:06.933Z,1.80
2017-09-17T14:51:35.967Z,2.37
2017-09-17T14:54:04.354Z,2.00
2017-09-17T14:56:33.686Z,2.70
2017-09-17T14:59:03.261Z,2.23
2017-09-17T15:01:32.290Z,1.90
2017-09-17T15:04:01.985Z,2.80
2017-09-17T15:06:31.782Z,2.30
2017-09-17T15:09:00.547Z,2.10
2017-09-17T15:11:29.652Z,2.07
2017-09-17T15:13:59.070Z,3.13
2017-09-17T15:16:29.015Z,1.70
2017-09-17T15:18:58.395Z,1.87
2017-09-17T15:21:27.190Z,2.10
2017-09-17T15:23:55.575Z,1.87
2017-09-17T15:26:24.198Z,3.37
2017-09-17T15:28:53.737Z,2.93
2017-09-17T15:31:22.120Z,2.13
2017-09-17T15:33:50.510Z,2.90
2017-09-17T15:36:19.637Z,2.20
2017-09-17T15:38:48.778Z,7.20
2017-09-17T15:41:17.395Z,2.67
2017-09-17T15:43:47.472Z,3.10
2017-09-17T15:46:17.434Z,2.20
2017-09-17T15:48:47.183Z,1.97
2017-09-17T15:51:16.137Z,2.20
2017-09-17T15:53:44.486Z,2.13
2017-09-17T15:56:12.866Z,9.90
2017-09-17T15:58:41.784Z,2.70
2017-09-17T16:01:11.097Z,3.00
2017-09-17T16:03:39.447Z,2.80
2017-09-17T16:06:08.334Z,2.30
2017-09-17T16:08:37.403Z,2.87
2017-09-17T16:11:06.671Z,2.03
2017-09-17T16:13:36.044Z,6.80
2017-09-17T16:16:05.205Z,3.27
2017-09-17T16:18:34.211Z,5.13
2017-09-17T16:21:02.894Z,3.50
2017-09-17T16:23:32.693Z,8.17
2017-09-17T16:26:01.071Z,9.30
2017-09-17T16:28:29.942Z,5.57
2017-09-17T16:30:59.130Z,5.07
2017-09-17T16:33:29.184Z,8.20
2017-09-17T16:36:00.243Z,4.07
2017-09-17T16:38:30.068Z,4.23
2017-09-17T16:40:59.773Z,5.50
2017-09-17T16:43:29.208Z,3.00
2017-09-17T16:45:57.808Z,4.43
2017-09-17T16:48:27.261Z,10.83
2017-09-17T16:50:56.483Z,3.70
2017-09-17T16:53:24.888Z,4.70
2017-09-17T16:55:54.401Z,2.60
2017-09-17T16:58:23.562Z,3.00
2017-09-17T17:00:52.661Z,4.07
2017-09-17T17:03:21.020Z,3.03
2017-09-17T17:05:49.842Z,2.80
2017-09-17T17:08:18.218Z,3.40
2017-09-17T17:10:47.366Z,2.90
2017-09-17T17:13:18.155Z,4.43
2017-09-17T17:15:46.534Z,11.83
2017-09-17T17:18:14.882Z,5.03
2017-09-17T17:20:43.817Z,5.47
2017-09-17T17:23:12.158Z,5.97
2017-09-17T17:25:40.527Z,6.47
2017-09-17T17:28:09.403Z,7.10
2017-09-17T17:30:38.826Z,7.90
2017-09-17T17:33:07.221Z,4.73
2017-09-17T17:35:36.327Z,9.73
2017-09-17T17:38:05.420Z,5.87
2017-09-17T17:40:34.022Z,6.57
2017-09-17T17:43:05.037Z,4.37
2017-09-17T17:45:33.672Z,5.30
2017-09-17T17:48:02.063Z,12.80
2017-09-17T17:50:31.737Z,7.63
2017-09-17T17:53:00.693Z,6.47
2017-09-17T17:55:30.182Z,6.97
2017-09-17T17:57:59.807Z,6.03
2017-09-17T18:00:28.836Z,16.87
2017-09-17T18:02:57.971Z,6.77
2017-09-17T18:05:27.700Z,14.13
2017-09-17T18:07:56.038Z,5.67
2017-09-17T18:10:24.611Z,5.67
2017-09-17T18:12:53.235Z,6.63
2017-09-17T18:15:22.364Z,9.13
2017-09-17T18:17:51.016Z,11.73
2017-09-17T18:20:21.382Z,3.20
2017-09-17T18:22:50.604Z,3.13
2017-09-17T18:25:19.786Z,6.53
2017-09-17T18:27:48.558Z,2.80
2017-09-17T18:30:16.952Z,2.43
2017-09-17T18:32:45.319Z,2.37
2017-09-17T18:35:14.221Z,3.47
2017-09-17T18:37:42.637Z,2.67
2017-09-17T18:40:11.096Z,3.53
2017-09-17T18:42:39.896Z,2.07
2017-09-17T18:45:08.487Z,1.70
2017-09-17T18:47:36.904Z,2.63
2017-09-17T18:50:08.698Z,3.10
2017-09-17T18:52:37.992Z,2.80
2017-09-17T18:55:06.383Z,2.27
2017-09-17T18:57:35.123Z,1.60
2017-09-17T19:00:04.341Z,1.20
2017-09-17T19:02:33.556Z,1.57
2017-09-17T19:05:03.659Z,1.10
2017-09-17T19:07:32.158Z,1.63
2017-09-17T19:10:00.989Z,1.60
2017-09-17T19:12:30.679Z,1.43
2017-09-17T19:15:00.024Z,2.03
2017-09-17T19:17:31.370Z,1.27
2017-09-17T19:20:01.376Z,1.60
2017-09-17T19:22:30.539Z,1.73
2017-09-17T19:25:00.219Z,1.43
2017-09-17T19:27:29.321Z,1.60
2017-09-17T19:29:57.672Z,1.80
2017-09-17T19:32:26.705Z,1.80
2017-09-17T19:34:55.074Z,1.53
2017-09-17T19:37:23.441Z,3.00
2017-09-17T19:39:52.173Z,1.70
2017-09-17T19:42:21.256Z,3.83
2017-09-17T19:44:50.325Z,1.67
2017-09-17T19:47:19.784Z,3.60
2017-09-17T19:49:49.642Z,2.37
2017-09-17T19:52:18.014Z,1.80
2017-09-17T19:54:47.771Z,3.40
2017-09-17T19:57:16.135Z,2.10
2017-09-17T19:59:45.236Z,8.60
2017-09-17T20:02:13.930Z,5.23
2017-09-17T20:04:42.313Z,1.83
2017-09-17T20:07:11.503Z,4.43
2017-09-17T20:09:40.184Z,1.80
2017-09-17T20:12:09.319Z,7.07
2017-09-17T20:14:38.352Z,4.00
2017-09-17T20:17:07.196Z,1.50
2017-09-17T20:19:35.584Z,3.13
2017-09-17T20:22:05.933Z,2.83
2017-09-17T20:24:36.048Z,2.33
2017-09-17T20:27:05.590Z,2.20
2017-09-17T20:29:33.936Z,2.37
2017-09-17T20:32:04.841Z,5.60
2017-09-17T20:37:41.479Z,2.43
2017-09-17T20:40:09.927Z,2.63
2017-09-17T20:42:38.340Z,5.23
2017-09-17T20:45:07.209Z,4.20
2017-09-17T20:47:35.577Z,4.13
2017-09-17T20:50:03.945Z,4.33
2017-09-17T20:52:33.590Z,2.90
2017-09-17T20:55:01.974Z,3.10
2017-09-17T20:57:30.323Z,2.70
2017-09-17T20:59:59.130Z,7.80
2017-09-17T21:02:27.491Z,4.00
2017-09-17T21:04:55.842Z,2.70
2017-09-17T21:07:25.281Z,6.50
2017-09-17T21:09:53.647Z,6.10
2017-09-17T21:12:22.028Z,2.50
2017-09-17T21:14:50.926Z,2.30
2017-09-17T21:17:19.274Z,2.67
2017-09-17T21:19:47.632Z,2.73
2017-09-17T21:22:16.806Z,2.60
2017-09-17T21:24:45.179Z,5.77
2017-09-17T21:27:14.320Z,3.47
2017-09-17T21:29:43.050Z,2.70
2017-09-17T21:32:11.417Z,3.60
2017-09-17T21:34:40.530Z,2.70
2017-09-17T21:37:09.318Z,2.43
2017-09-17T21:39:37.678Z,5.20
2017-09-17T21:42:06.825Z,4.13
2017-09-17T21:44:35.542Z,3.13
2017-09-17T21:47:03.900Z,2.33
2017-09-17T21:49:32.307Z,2.30
2017-09-17T21:52:01.046Z,2.60
2017-09-17T21:54:29.409Z,2.90
2017-09-17T21:56:57.789Z,3.40
2017-09-17T21:59:26.478Z,9.57
2017-09-17T22:01:54.817Z,3.53
2017-09-17T22:04:23.157Z,3.93
2017-09-17T22:06:51.967Z,6.93
2017-09-17T22:09:20.337Z,4.03
2017-09-17T22:11:48.738Z,3.73
2017-09-17T22:14:17.394Z,3.43
2017-09-17T22:16:45.793Z,5.70
2017-09-17T22:19:14.165Z,3.80
2017-09-17T22:21:42.806Z,6.30
2017-09-17T22:24:11.195Z,3.80
2017-09-17T22:26:39.556Z,4.10
2017-09-17T22:29:08.460Z,3.20
2017-09-17T22:31:36.817Z,3.10
2017-09-17T22:34:05.185Z,2.90
2017-09-17T22:36:34.599Z,7.33
2017-09-17T22:39:03.744Z,3.87
2017-09-17T22:41:32.130Z,4.00
2017-09-17T22:44:00.788Z,3.17
2017-09-17T22:46:29.147Z,3.20
2017-09-17T22:48:57.529Z,3.03
2017-09-17T22:51:26.477Z,3.40
2017-09-17T22:53:54.865Z,2.97
2017-09-17T22:56:23.217Z,3.30
2017-09-17T22:58:51.936Z,2.50
2017-09-17T23:01:20.281Z,2.60
2017-09-17T23:03:48.671Z,2.80
2017-09-17T23:06:18.160Z,2.20
2017-09-17T23:08:46.514Z,2.40
2017-09-17T23:11:14.866Z,3.60
2017-09-17T23:13:43.737Z,4.63
2017-09-17T23:16:12.070Z,2.93
2017-09-17T23:18:40.493Z,3.03
2017-09-17T23:21:09.135Z,3.87
2017-09-17T23:23:37.538Z,2.90
2017-09-17T23:26:05.977Z,2.53
2017-09-17T23:28:35.500Z,4.83
2017-09-17T23:31:03.870Z,2.63
2017-09-17T23:33:32.240Z,2.83
2017-09-17T23:36:00.959Z,2.43
2017-09-17T23:38:29.303Z,4.93
2017-09-17T23:40:58.447Z,3.13
2017-09-17T23:43:27.195Z,5.00
2017-09-17T23:45:55.542Z,3.53
2017-09-17T23:48:23.902Z,3.40
2017-09-17T23:50:52.727Z,3.13
2017-09-17T23:53:26.487Z,3.57
2017-09-17T23:55:55.362Z,3.80
2017-09-17T23:58:23.697Z,3.40
